createdAt,value
2023-05-10T04:01:26.537Z,14.86
2023-05-10T04:05:29.244Z,14.79
2023-05-10T04:09:31.880Z,14.81
2023-05-10T04:13:34.378Z,14.85
2023-05-10T04:17:38.655Z,14.85
2023-05-10T04:21:41.241Z,14.88
2023-05-10T04:25:43.745Z,14.87
2023-05-10T04:29:46.255Z,14.93
2023-05-10T04:33:50.820Z,14.89
2023-05-10T04:37:53.345Z,14.96
2023-05-10T04:41:58.197Z,15.01
2023-05-10T04:46:00.956Z,14.99
2023-05-10T04:50:05.785Z,14.98
2023-05-10T04:54:08.380Z,14.94
2023-05-10T04:58:10.905Z,14.99
2023-05-10T05:02:13.420Z,15.00
2023-05-10T05:06:17.239Z,14.93
2023-05-10T05:10:20.252Z,14.98
2023-05-10T05:14:22.857Z,14.95
2023-05-10T05:18:25.363Z,14.86
2023-05-10T05:22:29.356Z,14.72
2023-05-10T05:26:39.683Z,14.54
2023-05-10T05:30:42.565Z,14.46
2023-05-10T05:34:46.421Z,14.43
2023-05-10T05:38:48.915Z,14.45
2023-05-10T05:42:52.762Z,14.36
2023-05-10T05:46:55.255Z,14.35
2023-05-10T05:50:58.399Z,14.30
2023-05-10T05:55:01.166Z,14.06
2023-05-10T05:59:05.006Z,14.10
2023-05-10T06:03:07.990Z,14.09
2023-05-10T06:07:10.680Z,14.22
2023-05-10T06:11:13.163Z,14.38
2023-05-10T06:15:17.772Z,14.51
2023-05-10T06:19:20.441Z,14.70
2023-05-10T06:23:23.202Z,14.81
2023-05-10T06:27:25.709Z,14.71
2023-05-10T06:31:29.565Z,14.80
2023-05-10T06:35:34.257Z,14.92
2023-05-10T06:39:36.753Z,15.11
2023-05-10T06:43:40.888Z,15.14
2023-05-10T06:47:45.365Z,15.27
2023-05-10T06:51:48.057Z,15.35
2023-05-10T06:55:51.293Z,15.47
2023-05-10T06:59:54.089Z,15.60
2023-05-10T07:03:57.945Z,15.65
2023-05-10T07:08:00.788Z,15.70
2023-05-10T07:12:03.600Z,15.73
2023-05-10T07:16:07.360Z,15.70
2023-05-10T07:20:12.192Z,15.84
2023-05-10T07:24:14.742Z,15.98
2023-05-10T07:28:18.075Z,16.11
2023-05-10T07:32:20.528Z,16.22
2023-05-10T07:36:24.424Z,16.49
2023-05-10T07:40:26.980Z,16.35
2023-05-10T07:44:29.422Z,16.25
2023-05-10T07:48:32.207Z,16.10
2023-05-10T07:52:36.035Z,15.86
2023-05-10T07:56:38.863Z,16.06
2023-05-10T08:00:42.166Z,16.16
2023-05-10T08:04:44.707Z,16.27
2023-05-10T08:08:51.116Z,16.46
2023-05-10T08:12:53.659Z,16.20
2023-05-10T08:16:56.348Z,16.24
2023-05-10T08:20:58.828Z,16.35
2023-05-10T08:25:02.712Z,16.23
2023-05-10T08:29:05.290Z,16.39
2023-05-10T08:33:07.830Z,16.67
2023-05-10T08:37:11.425Z,16.79
2023-05-10T08:41:15.663Z,16.94
2023-05-10T08:45:20.300Z,16.83
2023-05-10T08:49:23.685Z,17.22
2023-05-10T08:53:26.838Z,17.69
2023-05-10T08:57:30.803Z,18.10
2023-05-10T09:01:34.323Z,18.24
2023-05-10T09:05:38.298Z,18.26
2023-05-10T09:09:41.042Z,18.31
2023-05-10T09:13:45.445Z,18.70
2023-05-10T09:17:49.042Z,18.65
2023-05-10T09:21:51.653Z,19.15
2023-05-10T09:26:04.781Z,19.02
2023-05-10T09:30:11.277Z,19.09
2023-05-10T09:34:18.843Z,18.80
2023-05-10T09:38:21.328Z,18.88
2023-05-10T09:42:25.038Z,18.70
2023-05-10T09:46:29.019Z,19.07
2023-05-10T09:50:32.170Z,18.94
2023-05-10T09:54:35.388Z,18.64
2023-05-10T09:58:38.918Z,18.18
2023-05-10T10:02:42.997Z,18.30
2023-05-10T10:06:46.032Z,18.26
2023-05-10T10:10:48.846Z,18.38
2023-05-10T10:14:51.913Z,18.15
2023-05-10T10:18:56.263Z,17.99
2023-05-10T10:22:58.860Z,17.36
2023-05-10T10:27:10.881Z,17.45
2023-05-10T10:31:23.135Z,17.60
2023-05-10T10:35:27.179Z,17.38
2023-05-10T10:39:30.125Z,17.36
2023-05-10T10:43:32.672Z,17.53
2023-05-10T10:47:35.931Z,17.33
2023-05-10T10:51:40.805Z,17.20
2023-05-10T10:55:50.164Z,17.35
2023-05-10T10:59:52.714Z,17.54
2023-05-10T11:04:20.203Z,18.55
2023-05-10T11:08:29.611Z,19.40
2023-05-10T11:12:32.146Z,19.40
2023-05-10T11:16:43.352Z,20.21
2023-05-10T11:20:47.656Z,20.82
2023-05-10T11:25:00.165Z,20.99
2023-05-10T11:29:05.407Z,21.83
2023-05-10T11:33:08.431Z,22.12
2023-05-10T11:37:10.860Z,22.21
2023-05-10T11:41:16.497Z,22.22
2023-05-10T11:45:19.309Z,22.36
2023-05-10T11:49:24.890Z,22.98
2023-05-10T11:53:28.136Z,23.52
2023-05-10T11:57:32.523Z,23.70
2023-05-10T12:01:35.463Z,23.48
2023-05-10T12:05:38.029Z,23.28
2023-05-10T12:09:44.863Z,22.50
2023-05-10T12:13:49.638Z,22.25
2023-05-10T12:17:53.039Z,22.03
2023-05-10T12:21:55.819Z,21.66
2023-05-10T12:26:04.273Z,21.37
2023-05-10T12:30:09.669Z,20.92
2023-05-10T12:34:12.231Z,20.07
2023-05-10T12:38:29.809Z,19.70
2023-05-10T12:42:32.609Z,19.78
2023-05-10T12:46:36.619Z,19.87
2023-05-10T12:50:39.170Z,20.17
2023-05-10T12:54:41.776Z,20.09
2023-05-10T12:58:48.826Z,19.72
2023-05-10T13:02:53.091Z,19.82
2023-05-10T13:06:57.058Z,20.00
2023-05-10T13:10:59.614Z,20.37
2023-05-10T13:15:02.193Z,20.88
2023-05-10T13:19:06.089Z,21.46
2023-05-10T13:23:08.644Z,22.10
2023-05-10T13:27:11.227Z,22.27
2023-05-10T13:31:13.908Z,22.13
2023-05-10T13:35:17.811Z,22.37
2023-05-10T13:39:20.396Z,22.17
2023-05-10T13:43:22.933Z,22.13
2023-05-10T13:47:25.558Z,22.25
2023-05-10T13:51:29.439Z,22.44
2023-05-10T13:55:32.001Z,22.16
2023-05-10T13:59:34.865Z,22.04
2023-05-10T14:03:37.974Z,22.21
2023-05-10T14:07:42.141Z,22.25
2023-05-10T14:11:45.906Z,22.23
2023-05-10T14:15:48.435Z,22.67
2023-05-10T14:19:50.934Z,23.06
2023-05-10T14:23:56.479Z,23.25
2023-05-10T14:27:59.033Z,23.07
2023-05-10T14:32:01.718Z,23.25
2023-05-10T14:36:05.020Z,23.57
2023-05-10T14:40:10.725Z,23.58
2023-05-10T14:44:13.250Z,23.18
2023-05-10T14:48:18.299Z,23.15
2023-05-10T14:52:20.865Z,23.25
2023-05-10T14:56:24.888Z,22.96
2023-05-10T15:00:27.460Z,23.24
2023-05-10T15:04:30.553Z,23.48
2023-05-10T15:08:33.651Z,23.15
2023-05-10T15:12:37.547Z,22.99
2023-05-10T15:16:40.062Z,22.96
2023-05-10T15:20:42.679Z,22.97
2023-05-10T15:24:45.302Z,23.06
2023-05-10T15:28:49.146Z,23.01
2023-05-10T15:32:51.957Z,23.42
2023-05-10T15:36:54.402Z,23.22
2023-05-10T15:40:58.508Z,23.01
2023-05-10T15:45:02.414Z,23.38
2023-05-10T15:49:05.103Z,23.87
2023-05-10T15:53:07.680Z,23.75
2023-05-10T15:57:10.437Z,23.80
2023-05-10T16:01:14.407Z,23.77
2023-05-10T16:05:17.201Z,23.24
2023-05-10T16:09:19.768Z,22.69
2023-05-10T16:13:22.395Z,22.33
2023-05-10T16:17:26.677Z,21.27
2023-05-10T16:21:32.202Z,20.12
2023-05-10T16:25:34.932Z,19.64
2023-05-10T16:29:37.517Z,19.40
2023-05-10T16:33:41.401Z,19.27
2023-05-10T16:37:43.995Z,18.77
2023-05-10T16:41:46.605Z,18.77
2023-05-10T16:45:49.178Z,18.73
2023-05-10T16:49:53.087Z,18.61
2023-05-10T16:53:55.983Z,18.55
2023-05-10T16:58:00.777Z,18.49
2023-05-10T17:02:03.340Z,18.42
2023-05-10T17:06:08.070Z,18.33
2023-05-10T17:10:11.677Z,18.39
2023-05-10T17:14:14.199Z,18.44
2023-05-10T17:18:17.299Z,18.43
2023-05-10T17:22:21.070Z,18.40
2023-05-10T17:26:23.526Z,18.34
2023-05-10T17:30:28.688Z,18.19
2023-05-10T17:34:31.428Z,17.99
2023-05-10T17:38:37.012Z,18.12
2023-05-10T17:42:39.680Z,18.16
2023-05-10T17:46:42.262Z,18.14
2023-05-10T17:50:44.948Z,18.00
2023-05-10T17:54:48.893Z,17.95
2023-05-10T17:58:51.416Z,17.88
2023-05-10T18:02:54.019Z,17.76
2023-05-10T18:07:01.380Z,17.67
2023-05-10T18:11:05.359Z,17.67
2023-05-10T18:15:08.951Z,17.51
2023-05-10T18:19:11.538Z,17.41
2023-05-10T18:23:16.210Z,17.25
2023-05-10T18:27:20.339Z,17.21
2023-05-10T18:31:22.939Z,17.09
2023-05-10T18:35:26.597Z,16.95
2023-05-10T18:39:29.180Z,16.81
2023-05-10T18:43:34.059Z,16.72
2023-05-10T18:47:36.719Z,16.62
2023-05-10T18:51:39.342Z,16.49
2023-05-10T18:55:42.136Z,16.57
2023-05-10T18:59:46.492Z,16.52
2023-05-10T19:03:49.070Z,16.49
2023-05-10T19:07:51.612Z,16.42
2023-05-10T19:11:54.123Z,16.42
2023-05-10T19:16:12.566Z,16.36
2023-05-10T19:20:15.460Z,16.33
2023-05-10T19:24:19.529Z,16.35
2023-05-10T19:28:22.097Z,16.27
2023-05-10T19:32:25.995Z,16.18
2023-05-10T19:36:28.540Z,16.09
2023-05-10T19:40:31.188Z,16.07
2023-05-10T19:44:33.735Z,16.09
2023-05-10T19:48:37.566Z,15.93
2023-05-10T19:52:40.213Z,16.00
2023-05-10T19:56:42.828Z,15.98
2023-05-10T20:00:45.434Z,15.79
2023-05-10T20:04:49.900Z,15.80
2023-05-10T20:08:52.425Z,15.68
2023-05-10T20:12:54.958Z,15.56
2023-05-10T20:16:57.567Z,15.48
2023-05-10T20:21:01.972Z,15.61
2023-05-10T20:25:04.962Z,15.51
2023-05-10T20:29:07.474Z,15.45
2023-05-10T20:33:10.046Z,15.49
2023-05-10T20:37:14.537Z,15.43
2023-05-10T20:41:17.063Z,15.37
2023-05-10T20:45:19.540Z,15.36
2023-05-10T20:49:22.127Z,15.29
2023-05-10T20:53:25.978Z,15.42
2023-05-10T20:57:28.452Z,15.53
